sensor_id;sensor_type;location;lat;lon;timestamp;pressure;altitude;pressure_sealevel;temperature;humidity
21781;BME280;52576;53.614;9.894;2023-07-22T00:00:26;100849.31;;;13.40;87.68
21781;BME280;52576;53.614;9.894;2023-07-22T00:02:29;100847.66;;;13.39;87.47
21781;BME280;52576;53.614;9.894;2023-07-22T00:04:32;100845.84;;;13.39;87.38
21781;BME280;52576;53.614;9.894;2023-07-22T00:06:36;100846.91;;;13.37;87.25
21781;BME280;52576;53.614;9.894;2023-07-22T00:08:39;100841.78;;;13.35;87.60
21781;BME280;52576;53.614;9.894;2023-07-22T00:10:42;100837.47;;;13.34;87.30
21781;BME280;52576;53.614;9.894;2023-07-22T00:12:45;100835.78;;;13.33;87.60
21781;BME280;52576;53.614;9.894;2023-07-22T00:14:48;100843.81;;;13.32;87.49
21781;BME280;52576;53.614;9.894;2023-07-22T00:16:53;100841.28;;;13.30;87.42
21781;BME280;52576;53.614;9.894;2023-07-22T00:18:56;100839.59;;;13.29;87.45
21781;BME280;52576;53.614;9.894;2023-07-22T00:20:59;100844.25;;;13.25;87.28
21781;BME280;52576;53.614;9.894;2023-07-22T00:23:02;100843.47;;;13.25;87.48
21781;BME280;52576;53.614;9.894;2023-07-22T00:25:07;100851.47;;;13.23;87.59
21781;BME280;52576;53.614;9.894;2023-07-22T00:27:11;100854.22;;;13.22;87.41
21781;BME280;52576;53.614;9.894;2023-07-22T00:29:15;100848.34;;;13.18;87.42
21781;BME280;52576;53.614;9.894;2023-07-22T00:31:18;100855.28;;;13.19;87.51
21781;BME280;52576;53.614;9.894;2023-07-22T00:33:23;100849.31;;;13.17;87.51
21781;BME280;52576;53.614;9.894;2023-07-22T00:35:26;100850.25;;;13.16;87.45
21781;BME280;52576;53.614;9.894;2023-07-22T00:37:29;100846.66;;;13.17;87.53
21781;BME280;52576;53.614;9.894;2023-07-22T00:39:32;100849.41;;;13.16;87.47
21781;BME280;52576;53.614;9.894;2023-07-22T00:41:35;100847.69;;;13.15;87.51
21781;BME280;52576;53.614;9.894;2023-07-22T00:43:39;100852.13;;;13.14;87.49
21781;BME280;52576;53.614;9.894;2023-07-22T00:45:42;100847.94;;;13.12;87.22
21781;BME280;52576;53.614;9.894;2023-07-22T00:47:46;100851.53;;;13.11;87.56
21781;BME280;52576;53.614;9.894;2023-07-22T00:49:52;100845.53;;;13.09;87.64
21781;BME280;52576;53.614;9.894;2023-07-22T00:51:55;100857.84;;;13.08;87.44
21781;BME280;52576;53.614;9.894;2023-07-22T00:53:59;100850.91;;;13.07;87.64
21781;BME280;52576;53.614;9.894;2023-07-22T00:56:02;100840.38;;;13.07;87.67
21781;BME280;52576;53.614;9.894;2023-07-22T00:58:05;100850.06;;;13.07;87.85
21781;BME280;52576;53.614;9.894;2023-07-22T01:00:08;100849.22;;;13.06;87.87
21781;BME280;52576;53.614;9.894;2023-07-22T01:02:14;100844.81;;;13.07;87.82
21781;BME280;52576;53.614;9.894;2023-07-22T01:04:19;100843.13;;;13.06;87.89
21781;BME280;52576;53.614;9.894;2023-07-22T01:06:25;100847.56;;;13.05;87.59
21781;BME280;52576;53.614;9.894;2023-07-22T01:08:30;100845.88;;;13.04;87.85
21781;BME280;52576;53.614;9.894;2023-07-22T01:10:33;100845.88;;;13.04;87.88
21781;BME280;52576;53.614;9.894;2023-07-22T01:12:36;100846.94;;;13.02;87.78
21781;BME280;52576;53.614;9.894;2023-07-22T01:14:41;100850.53;;;13.01;87.93
21781;BME280;52576;53.614;9.894;2023-07-22T01:16:43;100849.69;;;13.00;87.77
21781;BME280;52576;53.614;9.894;2023-07-22T01:18:47;100843.72;;;12.98;88.01
21781;BME280;52576;53.614;9.894;2023-07-22T01:20:50;100837.75;;;12.96;88.06
21781;BME280;52576;53.614;9.894;2023-07-22T01:22:55;100836.06;;;12.95;88.03
21781;BME280;52576;53.614;9.894;2023-07-22T01:24:59;100837.97;;;12.93;88.13
21781;BME280;52576;53.614;9.894;2023-07-22T01:27:03;100839.88;;;12.91;87.77
21781;BME280;52576;53.614;9.894;2023-07-22T01:29:09;100833.91;;;12.89;87.91
21781;BME280;52576;53.614;9.894;2023-07-22T01:31:12;100834.84;;;12.88;87.76
21781;BME280;52576;53.614;9.894;2023-07-22T01:33:16;100832.44;;;12.85;87.91
21781;BME280;52576;53.614;9.894;2023-07-22T01:35:19;100835.19;;;12.83;87.99
21781;BME280;52576;53.614;9.894;2023-07-22T01:37:22;100834.47;;;12.81;88.01
21781;BME280;52576;53.614;9.894;2023-07-22T01:39:27;100835.53;;;12.79;87.92
21781;BME280;52576;53.614;9.894;2023-07-22T01:41:30;100836.47;;;12.78;87.80
21781;BME280;52576;53.614;9.894;2023-07-22T01:43:33;100825.22;;;12.76;88.06
21781;BME280;52576;53.614;9.894;2023-07-22T01:45:36;100830.75;;;12.73;88.18
21781;BME280;52576;53.614;9.894;2023-07-22T01:47:39;100824.75;;;12.71;88.09
21781;BME280;52576;53.614;9.894;2023-07-22T01:49:44;100825.72;;;12.70;88.19
21781;BME280;52576;53.614;9.894;2023-07-22T01:51:47;100822.25;;;12.69;88.06
21781;BME280;52576;53.614;9.894;2023-07-22T01:53:50;100822.34;;;12.68;88.35
21781;BME280;52576;53.614;9.894;2023-07-22T01:55:54;100825.94;;;12.67;88.25
21781;BME280;52576;53.614;9.894;2023-07-22T01:57:57;100827.00;;;12.64;88.21
21781;BME280;52576;53.614;9.894;2023-07-22T02:00:00;100824.50;;;12.63;87.98
21781;BME280;52576;53.614;9.894;2023-07-22T02:02:13;100824.72;;;12.60;88.10
21781;BME280;52576;53.614;9.894;2023-07-22T02:04:16;100823.97;;;12.57;88.01
21781;BME280;52576;53.614;9.894;2023-07-22T02:06:19;100832.09;;;12.54;88.04
21781;BME280;52576;53.614;9.894;2023-07-22T02:08:23;100830.41;;;12.53;87.97
21781;BME280;52576;53.614;9.894;2023-07-22T02:10:26;100831.38;;;12.52;88.10
21781;BME280;52576;53.614;9.894;2023-07-22T02:12:31;100834.22;;;12.49;87.82
21781;BME280;52576;53.614;9.894;2023-07-22T02:14:34;100824.66;;;12.48;87.96
21781;BME280;52576;53.614;9.894;2023-07-22T02:16:38;100831.69;;;12.48;88.01
21781;BME280;52576;53.614;9.894;2023-07-22T02:18:42;100830.88;;;12.47;87.76
21781;BME280;52576;53.614;9.894;2023-07-22T02:20:45;100832.78;;;12.45;87.80
21781;BME280;52576;53.614;9.894;2023-07-22T02:22:48;100834.69;;;12.43;87.96
21781;BME280;52576;53.614;9.894;2023-07-22T02:24:51;100840.91;;;12.42;87.65
21781;BME280;52576;53.614;9.894;2023-07-22T02:26:54;100840.19;;;12.40;87.79
21781;BME280;52576;53.614;9.894;2023-07-22T02:28:59;100844.59;;;12.40;87.97
21781;BME280;52576;53.614;9.894;2023-07-22T02:31:02;100843.97;;;12.36;87.97
21781;BME280;52576;53.614;9.894;2023-07-22T02:33:09;100843.97;;;12.36;87.87
21781;BME280;52576;53.614;9.894;2023-07-22T02:35:12;100847.56;;;12.35;88.11
21781;BME280;52576;53.614;9.894;2023-07-22T02:37:15;100844.09;;;12.35;88.08
21781;BME280;52576;53.614;9.894;2023-07-22T02:39:18;100844.19;;;12.33;87.86
21781;BME280;52576;53.614;9.894;2023-07-22T02:41:21;100851.13;;;12.34;87.88
21781;BME280;52576;53.614;9.894;2023-07-22T02:43:25;100851.03;;;12.36;88.25
21781;BME280;52576;53.614;9.894;2023-07-22T02:45:29;100857.84;;;12.38;87.91
21781;BME280;52576;53.614;9.894;2023-07-22T02:47:32;100852.59;;;12.38;88.17
21781;BME280;52576;53.614;9.894;2023-07-22T02:49:36;100855.22;;;12.38;88.10
21781;BME280;52576;53.614;9.894;2023-07-22T02:51:39;100851.63;;;12.39;88.05
21781;BME280;52576;53.614;9.894;2023-07-22T02:53:42;100856.78;;;12.41;87.97
21781;BME280;52576;53.614;9.894;2023-07-22T02:55:46;100851.41;;;12.42;88.10
21781;BME280;52576;53.614;9.894;2023-07-22T02:57:50;100850.47;;;12.43;88.17
21781;BME280;52576;53.614;9.894;2023-07-22T02:59:53;100850.47;;;12.43;87.98
21781;BME280;52576;53.614;9.894;2023-07-22T03:01:57;100850.47;;;12.43;88.00
21781;BME280;52576;53.614;9.894;2023-07-22T03:04:00;100850.47;;;12.43;88.03
21781;BME280;52576;53.614;9.894;2023-07-22T03:06:04;100855.72;;;12.43;87.98
21781;BME280;52576;53.614;9.894;2023-07-22T03:08:06;100852.25;;;12.43;88.10
21781;BME280;52576;53.614;9.894;2023-07-22T03:10:09;100851.41;;;12.42;88.09
21781;BME280;52576;53.614;9.894;2023-07-22T03:12:13;100862.88;;;12.41;87.97
21781;BME280;52576;53.614;9.894;2023-07-22T03:14:16;100859.53;;;12.39;87.82
21781;BME280;52576;53.614;9.894;2023-07-22T03:16:19;100863.09;;;12.38;87.84
21781;BME280;52576;53.614;9.894;2023-07-22T03:18:24;100861.41;;;12.37;87.92
21781;BME280;52576;53.614;9.894;2023-07-22T03:20:27;100870.16;;;12.38;87.96
21781;BME280;52576;53.614;9.894;2023-07-22T03:22:30;100857.84;;;12.38;88.09
21781;BME280;52576;53.614;9.894;2023-07-22T03:24:33;100866.56;;;12.39;87.70
21781;BME280;52576;53.614;9.894;2023-07-22T03:26:35;100862.25;;;12.38;87.67
21781;BME280;52576;53.614;9.894;2023-07-22T03:28:38;100867.53;;;12.38;87.89
21781;BME280;52576;53.614;9.894;2023-07-22T03:30:43;100861.41;;;12.37;87.92
21781;BME280;52576;53.614;9.894;2023-07-22T03:32:47;100865.94;;;12.35;87.92
21781;BME280;52576;53.614;9.894;2023-07-22T03:34:53;100863.31;;;12.35;87.69
21781;BME280;52576;53.614;9.894;2023-07-22T03:36:56;100870.47;;;12.33;87.62
21781;BME280;52576;53.614;9.894;2023-07-22T03:39:01;100872.38;;;12.31;87.72
21781;BME280;52576;53.614;9.894;2023-07-22T03:41:05;100867.22;;;12.30;87.92
21781;BME280;52576;53.614;9.894;2023-07-22T03:43:08;100869.00;;;12.29;87.93
21781;BME280;52576;53.614;9.894;2023-07-22T03:45:11;100875.22;;;12.28;87.96
21781;BME280;52576;53.614;9.894;2023-07-22T03:47:14;100874.28;;;12.29;87.86
21781;BME280;52576;53.614;9.894;2023-07-22T03:49:16;100873.44;;;12.29;87.98
21781;BME280;52576;53.614;9.894;2023-07-22T03:51:21;100874.16;;;12.31;88.05
21781;BME280;52576;53.614;9.894;2023-07-22T03:53:24;100874.06;;;12.32;88.06
21781;BME280;52576;53.614;9.894;2023-07-22T03:55:27;100877.41;;;12.34;87.96
21781;BME280;52576;53.614;9.894;2023-07-22T03:57:31;100878.16;;;12.36;88.09
21781;BME280;52576;53.614;9.894;2023-07-22T03:59:34;100877.91;;;12.39;87.85
21781;BME280;52576;53.614;9.894;2023-07-22T04:01:36;100876.13;;;12.40;87.88
21781;BME280;52576;53.614;9.894;2023-07-22T04:03:39;100876.97;;;12.40;87.86
21781;BME280;52576;53.614;9.894;2023-07-22T04:05:42;100871.72;;;12.40;87.82
21781;BME280;52576;53.614;9.894;2023-07-22T04:07:47;100877.72;;;12.42;87.74
21781;BME280;52576;53.614;9.894;2023-07-22T04:09:50;100876.03;;;12.41;87.84
21781;BME280;52576;53.614;9.894;2023-07-22T04:11:53;100878.66;;;12.41;87.68
21781;BME280;52576;53.614;9.894;2023-07-22T04:13:56;100885.59;;;12.42;87.73
21781;BME280;52576;53.614;9.894;2023-07-22T04:15:59;100887.28;;;12.43;87.92
21781;BME280;52576;53.614;9.894;2023-07-22T04:18:02;100888.94;;;12.44;87.63
21781;BME280;52576;53.614;9.894;2023-07-22T04:20:07;100894.22;;;12.44;87.85
21781;BME280;52576;53.614;9.894;2023-07-22T04:22:11;100893.25;;;12.45;87.75
21781;BME280;52576;53.614;9.894;2023-07-22T04:24:16;100888.94;;;12.44;87.67
21781;BME280;52576;53.614;9.894;2023-07-22T04:26:19;100899.34;;;12.46;87.76
21781;BME280;52576;53.614;9.894;2023-07-22T04:28:22;100889.44;;;12.49;87.94
21781;BME280;52576;53.614;9.894;2023-07-22T04:30:27;100896.03;;;12.55;87.87
21781;BME280;52576;53.614;9.894;2023-07-22T04:32:30;100901.69;;;12.62;87.98
21781;BME280;52576;53.614;9.894;2023-07-22T04:34:33;100910.09;;;12.67;87.89
21781;BME280;52576;53.614;9.894;2023-07-22T04:36:37;100907.25;;;12.70;87.86
21781;BME280;52576;53.614;9.894;2023-07-22T04:38:40;100907.13;;;12.71;87.42
21781;BME280;52576;53.614;9.894;2023-07-22T04:40:44;100914.91;;;12.73;87.52
21781;BME280;52576;53.614;9.894;2023-07-22T04:42:47;100917.41;;;12.74;87.48
21781;BME280;52576;53.614;9.894;2023-07-22T04:44:50;100918.97;;;12.77;87.53
21781;BME280;52576;53.614;9.894;2023-07-22T04:46:53;100916.13;;;12.80;87.65
21781;BME280;52576;53.614;9.894;2023-07-22T04:48:57;100918.53;;;12.83;87.28
21781;BME280;52576;53.614;9.894;2023-07-22T04:51:00;100914.00;;;12.85;87.26
21781;BME280;52576;53.614;9.894;2023-07-22T04:53:03;100919.03;;;12.88;87.18
21781;BME280;52576;53.614;9.894;2023-07-22T04:55:07;100927.66;;;12.90;87.01
21781;BME280;52576;53.614;9.894;2023-07-22T04:57:12;100920.47;;;12.92;87.04
21781;BME280;52576;53.614;9.894;2023-07-22T04:59:15;100930.56;;;12.98;86.91
21781;BME280;52576;53.614;9.894;2023-07-22T05:01:19;100934.72;;;13.01;87.01
21781;BME280;52576;53.614;9.894;2023-07-22T05:03:22;100930.56;;;13.09;87.03
21781;BME280;52576;53.614;9.894;2023-07-22T05:05:27;100936.25;;;13.16;87.12
21781;BME280;52576;53.614;9.894;2023-07-22T05:07:30;100931.38;;;13.22;86.65
21781;BME280;52576;53.614;9.894;2023-07-22T05:09:33;100940.69;;;13.27;86.41
21781;BME280;52576;53.614;9.894;2023-07-22T05:11:36;100934.38;;;13.29;86.53
21781;BME280;52576;53.614;9.894;2023-07-22T05:13:40;100938.56;;;13.32;86.29
21781;BME280;52576;53.614;9.894;2023-07-22T05:15:43;100940.25;;;13.33;86.01
21781;BME280;52576;53.614;9.894;2023-07-22T05:17:46;100942.75;;;13.34;86.09
21781;BME280;52576;53.614;9.894;2023-07-22T05:19:48;100941.69;;;13.37;85.93
21781;BME280;52576;53.614;9.894;2023-07-22T05:21:51;100944.09;;;13.40;85.97
21781;BME280;52576;53.614;9.894;2023-07-22T05:23:54;100939.56;;;13.42;85.66
21781;BME280;52576;53.614;9.894;2023-07-22T05:25:57;100934.28;;;13.42;85.57
21781;BME280;52576;53.614;9.894;2023-07-22T05:28:00;100937.88;;;13.41;85.38
21781;BME280;52576;53.614;9.894;2023-07-22T05:30:06;100940.50;;;13.41;85.28
21781;BME280;52576;53.614;9.894;2023-07-22T05:32:25;100946.50;;;13.43;85.11
21781;BME280;52576;53.614;9.894;2023-07-22T05:34:34;100939.56;;;13.42;85.14
21781;BME280;52576;53.614;9.894;2023-07-22T05:36:38;100946.50;;;13.43;85.06
21781;BME280;52576;53.614;9.894;2023-07-22T05:38:41;100941.00;;;13.46;85.41
21781;BME280;52576;53.614;9.894;2023-07-22T05:40:44;100951.31;;;13.49;85.23
21781;BME280;52576;53.614;9.894;2023-07-22T05:42:47;100947.47;;;13.53;85.26
21781;BME280;52576;53.614;9.894;2023-07-22T05:44:50;100950.72;;;13.56;84.95
21781;BME280;52576;53.614;9.894;2023-07-22T05:46:54;100957.41;;;13.61;84.88
21781;BME280;52576;53.614;9.894;2023-07-22T05:48:57;100950.97;;;13.65;84.96
21781;BME280;52576;53.614;9.894;2023-07-22T05:51:00;100951.56;;;13.68;84.86
21781;BME280;52576;53.614;9.894;2023-07-22T05:53:03;100949.44;;;13.73;84.82
21781;BME280;52576;53.614;9.894;2023-07-22T05:55:06;100959.47;;;13.79;84.87
21781;BME280;52576;53.614;9.894;2023-07-22T05:57:09;100953.75;;;13.85;84.66
21781;BME280;52576;53.614;9.894;2023-07-22T05:59:12;100958.78;;;13.88;84.44
21781;BME280;52576;53.614;9.894;2023-07-22T06:01:18;100965.72;;;13.89;83.75
21781;BME280;52576;53.614;9.894;2023-07-22T06:03:23;100962.13;;;13.90;83.60
21781;BME280;52576;53.614;9.894;2023-07-22T06:05:26;100954.94;;;13.92;83.42
21781;BME280;52576;53.614;9.894;2023-07-22T06:07:29;100960.94;;;13.95;83.21
21781;BME280;52576;53.614;9.894;2023-07-22T06:09:32;100961.66;;;13.97;83.32
21781;BME280;52576;53.614;9.894;2023-07-22T06:11:35;100966.69;;;14.00;83.14
21781;BME280;52576;53.614;9.894;2023-07-22T06:13:38;100963.09;;;14.01;82.92
21781;BME280;52576;53.614;9.894;2023-07-22T06:15:41;100954.25;;;14.02;83.16
21781;BME280;52576;53.614;9.894;2023-07-22T06:17:44;100959.25;;;14.05;83.08
21781;BME280;52576;53.614;9.894;2023-07-22T06:19:49;100961.41;;;14.11;82.81
21781;BME280;52576;53.614;9.894;2023-07-22T06:21:52;100965.59;;;14.13;82.49
21781;BME280;52576;53.614;9.894;2023-07-22T06:23:54;100966.91;;;14.19;82.55
21781;BME280;52576;53.614;9.894;2023-07-22T06:25:58;100969.09;;;14.25;82.41
21781;BME280;52576;53.614;9.894;2023-07-22T06:28:01;100966.78;;;14.32;81.87
21781;BME280;52576;53.614;9.894;2023-07-22T06:30:05;100972.41;;;14.38;81.84
21781;BME280;52576;53.614;9.894;2023-07-22T06:32:09;100970.28;;;14.43;82.08
21781;BME280;52576;53.614;9.894;2023-07-22T06:34:12;100976.75;;;14.50;81.52
21781;BME280;52576;53.614;9.894;2023-07-22T06:36:17;100978.19;;;14.54;80.75
21781;BME280;52576;53.614;9.894;2023-07-22T06:38:19;100976.00;;;14.59;80.67
21781;BME280;52576;53.614;9.894;2023-07-22T06:40:25;100979.09;;;14.65;80.38
21781;BME280;52576;53.614;9.894;2023-07-22T06:42:28;100978.63;;;14.71;80.10
21781;BME280;52576;53.614;9.894;2023-07-22T06:44:30;100980.78;;;14.77;80.02
21781;BME280;52576;53.614;9.894;2023-07-22T06:46:34;100986.50;;;14.82;79.67
21781;BME280;52576;53.614;9.894;2023-07-22T06:48:37;100984.44;;;14.85;79.02
21781;BME280;52576;53.614;9.894;2023-07-22T06:50:47;100983.22;;;14.89;79.07
21781;BME280;52576;53.614;9.894;2023-07-22T06:52:51;100979.38;;;14.93;78.46
21781;BME280;52576;53.614;9.894;2023-07-22T06:54:55;100981.66;;;14.98;78.07
21781;BME280;52576;53.614;9.894;2023-07-22T06:56:58;100977.81;;;15.02;77.66
21781;BME280;52576;53.614;9.894;2023-07-22T06:59:01;100980.06;;;15.07;77.09
21781;BME280;52576;53.614;9.894;2023-07-22T07:01:04;100976.31;;;15.09;76.93
21781;BME280;52576;53.614;9.894;2023-07-22T07:03:07;100976.78;;;15.14;76.93
21781;BME280;52576;53.614;9.894;2023-07-22T07:05:10;100978.22;;;15.18;76.84
21781;BME280;52576;53.614;9.894;2023-07-22T07:07:14;100973.25;;;15.25;76.66
21781;BME280;52576;53.614;9.894;2023-07-22T07:09:20;100981.34;;;15.33;76.94
21781;BME280;52576;53.614;9.894;2023-07-22T07:11:23;100989.50;;;15.41;75.70
21781;BME280;52576;53.614;9.894;2023-07-22T07:13:26;100979.50;;;15.45;75.33
21781;BME280;52576;53.614;9.894;2023-07-22T07:15:29;100988.16;;;15.47;74.86
21781;BME280;52576;53.614;9.894;2023-07-22T07:17:31;100989.56;;;15.51;74.53
21781;BME280;52576;53.614;9.894;2023-07-22T07:19:34;100987.63;;;15.53;73.94
21781;BME280;52576;53.614;9.894;2023-07-22T07:21:39;100988.81;;;15.60;73.79
21781;BME280;52576;53.614;9.894;2023-07-22T07:23:42;100988.28;;;15.66;72.57
21781;BME280;52576;53.614;9.894;2023-07-22T07:25:45;100991.41;;;15.71;72.73
21781;BME280;52576;53.614;9.894;2023-07-22T07:27:48;100997.00;;;15.78;72.62
21781;BME280;52576;53.614;9.894;2023-07-22T07:29:52;100999.97;;;15.84;72.22
21781;BME280;52576;53.614;9.894;2023-07-22T07:31:55;100998.72;;;15.88;71.09
21781;BME280;52576;53.614;9.894;2023-07-22T07:33:59;100995.81;;;15.91;71.19
21781;BME280;52576;53.614;9.894;2023-07-22T07:36:02;100997.94;;;15.98;71.10
21781;BME280;52576;53.614;9.894;2023-07-22T07:38:05;100991.56;;;16.00;71.11
21781;BME280;52576;53.614;9.894;2023-07-22T07:40:09;101000.91;;;16.04;71.48
21781;BME280;52576;53.614;9.894;2023-07-22T07:42:14;101001.59;;;16.06;71.66
21781;BME280;52576;53.614;9.894;2023-07-22T07:44:17;100997.16;;;16.07;71.61
21781;BME280;52576;53.614;9.894;2023-07-22T07:46:21;101000.50;;;16.09;71.12
21781;BME280;52576;53.614;9.894;2023-07-22T07:48:25;101005.25;;;16.15;71.51
21781;BME280;52576;53.614;9.894;2023-07-22T07:50:28;101006.41;;;16.22;71.28
21781;BME280;52576;53.614;9.894;2023-07-22T07:52:31;100996.97;;;16.29;70.78
21781;BME280;52576;53.614;9.894;2023-07-22T07:54:34;101005.34;;;16.34;70.70
21781;BME280;52576;53.614;9.894;2023-07-22T07:56:37;101012.19;;;16.37;70.17
21781;BME280;52576;53.614;9.894;2023-07-22T07:58:42;101006.72;;;16.38;70.23
21781;BME280;52576;53.614;9.894;2023-07-22T08:00:45;101011.03;;;16.39;69.96
21781;BME280;52576;53.614;9.894;2023-07-22T08:02:48;101010.06;;;16.40;69.67
21781;BME280;52576;53.614;9.894;2023-07-22T08:04:51;101019.69;;;16.41;69.66
21781;BME280;52576;53.614;9.894;2023-07-22T08:06:54;101011.50;;;16.44;69.35
21781;BME280;52576;53.614;9.894;2023-07-22T08:08:57;101010.69;;;16.53;68.68
21781;BME280;52576;53.614;9.894;2023-07-22T08:11:02;101014.66;;;16.69;68.85
21781;BME280;52576;53.614;9.894;2023-07-22T08:13:05;101010.94;;;16.81;68.19
21781;BME280;52576;53.614;9.894;2023-07-22T08:15:10;101015.38;;;16.90;67.62
21781;BME280;52576;53.614;9.894;2023-07-22T08:17:13;101021.25;;;16.93;66.69
21781;BME280;52576;53.614;9.894;2023-07-22T08:19:16;101025.00;;;16.91;66.38
21781;BME280;52576;53.614;9.894;2023-07-22T08:21:20;101021.69;;;16.89;66.01
21781;BME280;52576;53.614;9.894;2023-07-22T08:23:23;101018.47;;;16.85;65.81
21781;BME280;52576;53.614;9.894;2023-07-22T08:25:26;101017.91;;;16.82;65.31
21781;BME280;52576;53.614;9.894;2023-07-22T08:27:30;101014.28;;;16.83;64.99
21781;BME280;52576;53.614;9.894;2023-07-22T08:29:33;101021.69;;;16.89;64.91
21781;BME280;52576;53.614;9.894;2023-07-22T08:31:37;101014.97;;;16.94;64.59
21781;BME280;52576;53.614;9.894;2023-07-22T08:33:40;101022.50;;;16.99;64.92
21781;BME280;52576;53.614;9.894;2023-07-22T08:35:43;101018.63;;;17.03;64.19
21781;BME280;52576;53.614;9.894;2023-07-22T08:37:45;101032.84;;;17.12;64.06
21781;BME280;52576;53.614;9.894;2023-07-22T08:39:48;101025.44;;;17.15;63.21
21781;BME280;52576;53.614;9.894;2023-07-22T08:41:52;101022.78;;;17.15;62.60
21781;BME280;52576;53.614;9.894;2023-07-22T08:43:59;101023.78;;;17.24;62.82
21781;BME280;52576;53.614;9.894;2023-07-22T08:46:04;101028.53;;;17.40;62.01
21781;BME280;52576;53.614;9.894;2023-07-22T08:48:11;101032.69;;;17.52;60.65
21781;BME280;52576;53.614;9.894;2023-07-22T08:50:20;101038.41;;;17.57;60.83
21781;BME280;52576;53.614;9.894;2023-07-22T08:52:23;101037.88;;;17.63;60.38
21781;BME280;52576;53.614;9.894;2023-07-22T08:54:26;101030.88;;;17.62;59.71
21781;BME280;52576;53.614;9.894;2023-07-22T08:56:30;101031.16;;;17.59;59.33
21781;BME280;52576;53.614;9.894;2023-07-22T08:58:34;101035.63;;;17.58;59.19
21781;BME280;52576;53.614;9.894;2023-07-22T09:00:39;101028.09;;;17.63;58.90
21781;BME280;52576;53.614;9.894;2023-07-22T09:02:43;101029.47;;;17.77;58.66
21781;BME280;52576;53.614;9.894;2023-07-22T09:04:47;101026.41;;;17.91;59.13
21781;BME280;52576;53.614;9.894;2023-07-22T09:06:50;101031.94;;;18.08;58.83
21781;BME280;52576;53.614;9.894;2023-07-22T09:08:55;101030.47;;;18.23;58.21
21781;BME280;52576;53.614;9.894;2023-07-22T09:10:59;101036.28;;;18.36;57.59
21781;BME280;52576;53.614;9.894;2023-07-22T09:13:02;101024.47;;;18.48;57.58
21781;BME280;52576;53.614;9.894;2023-07-22T09:15:09;101031.56;;;18.57;57.87
21781;BME280;52576;53.614;9.894;2023-07-22T09:17:14;101029.19;;;18.64;56.71
21781;BME280;52576;53.614;9.894;2023-07-22T09:19:17;101031.09;;;18.72;56.25
21781;BME280;52576;53.614;9.894;2023-07-22T09:21:21;101027.16;;;18.76;56.09
21781;BME280;52576;53.614;9.894;2023-07-22T09:23:34;101026.56;;;18.82;55.73
21781;BME280;52576;53.614;9.894;2023-07-22T09:25:37;101028.25;;;18.83;55.38
21781;BME280;52576;53.614;9.894;2023-07-22T09:27:39;101032.47;;;18.76;54.19
21781;BME280;52576;53.614;9.894;2023-07-22T09:29:42;101033.38;;;18.67;53.91
21781;BME280;52576;53.614;9.894;2023-07-22T09:31:50;101025.03;;;18.61;53.55
21781;BME280;52576;53.614;9.894;2023-07-22T09:33:54;101020.56;;;18.62;54.00
21781;BME280;52576;53.614;9.894;2023-07-22T09:35:57;101019.13;;;18.68;53.98
21781;BME280;52576;53.614;9.894;2023-07-22T09:38:00;101021.50;;;18.71;54.06
21781;BME280;52576;53.614;9.894;2023-07-22T09:40:13;101026.09;;;18.69;54.45
21781;BME280;52576;53.614;9.894;2023-07-22T09:42:23;101022.91;;;18.65;54.58
21781;BME280;52576;53.614;9.894;2023-07-22T09:44:29;101022.22;;;18.63;54.33
21781;BME280;52576;53.614;9.894;2023-07-22T09:46:33;101025.28;;;18.58;54.59
21781;BME280;52576;53.614;9.894;2023-07-22T09:48:41;101029.22;;;18.54;53.93
21781;BME280;52576;53.614;9.894;2023-07-22T09:50:45;101027.53;;;18.53;53.81
21781;BME280;52576;53.614;9.894;2023-07-22T09:52:49;101025.03;;;18.61;54.14
21781;BME280;52576;53.614;9.894;2023-07-22T09:54:54;101022.84;;;18.75;54.00
21781;BME280;52576;53.614;9.894;2023-07-22T09:56:57;101029.63;;;18.87;53.74
21781;BME280;52576;53.614;9.894;2023-07-22T09:59:04;101027.06;;;18.95;53.54
21781;BME280;52576;53.614;9.894;2023-07-22T10:01:07;101029.78;;;19.03;53.04
21781;BME280;52576;53.614;9.894;2023-07-22T10:03:15;101017.28;;;19.13;53.16
21781;BME280;52576;53.614;9.894;2023-07-22T10:05:19;101026.31;;;19.20;52.26
21781;BME280;52576;53.614;9.894;2023-07-22T10:07:23;101024.34;;;19.22;51.92
21781;BME280;52576;53.614;9.894;2023-07-22T10:09:28;101019.53;;;19.26;51.96
21781;BME280;52576;53.614;9.894;2023-07-22T10:11:33;101018.38;;;19.28;51.40
21781;BME280;52576;53.614;9.894;2023-07-22T10:13:37;101016.56;;;19.29;51.12
21781;BME280;52576;53.614;9.894;2023-07-22T10:15:41;101018.09;;;19.31;51.13
21781;BME280;52576;53.614;9.894;2023-07-22T10:17:44;101009.13;;;19.32;50.74
21781;BME280;52576;53.614;9.894;2023-07-22T10:19:49;101012.16;;;19.38;50.77
21781;BME280;52576;53.614;9.894;2023-07-22T10:21:53;101008.59;;;19.47;51.01
21781;BME280;52576;53.614;9.894;2023-07-22T10:23:57;101010.66;;;19.53;50.23
21781;BME280;52576;53.614;9.894;2023-07-22T10:26:01;101009.66;;;19.54;50.43
21781;BME280;52576;53.614;9.894;2023-07-22T10:28:06;101018.78;;;19.51;50.10
21781;BME280;52576;53.614;9.894;2023-07-22T10:30:10;101014.13;;;19.53;48.83
21781;BME280;52576;53.614;9.894;2023-07-22T10:32:14;101003.19;;;19.56;49.17
21781;BME280;52576;53.614;9.894;2023-07-22T10:34:21;101007.75;;;19.64;48.87
21781;BME280;52576;53.614;9.894;2023-07-22T10:36:29;101004.81;;;19.75;48.56
21781;BME280;52576;53.614;9.894;2023-07-22T10:38:33;101009.53;;;19.81;48.56
21781;BME280;52576;53.614;9.894;2023-07-22T10:40:45;101006.09;;;19.89;47.91
21781;BME280;52576;53.614;9.894;2023-07-22T10:42:52;101000.81;;;19.97;47.86
21781;BME280;52576;53.614;9.894;2023-07-22T10:45:00;101008.69;;;20.07;47.97
21781;BME280;52576;53.614;9.894;2023-07-22T10:47:03;101009.72;;;20.14;47.57